Time,TemperatureF,DewpointF,PressureIn,WindDirection,WindDirectionDegrees,WindSpeedMPH,WindSpeedGustMPH,Humidity,HourlyPrecipIn,Conditions,Clouds,dailyrainin,SolarRadiationWatts/m^2,SoftwareType,DateUTC
2013-07-30 00:03:00,74.0,71.0,-100.00,SE,135,12.0,19.0,91,0.00,,,0.00,0.000000,,2013-07-30 05:03:00,
2013-07-30 00:33:00,73.0,71.0,-100.00,SE,134,10.0,18.0,94,0.00,,,0.00,0.000000,,2013-07-30 05:33:00,
2013-07-30 00:45:00,73.0,71.0,-100.00,SE,134,10.0,18.0,94,0.00,,,0.00,0.000000,,2013-07-30 05:45:00,
2013-07-30 00:53:00,73.0,71.0,-100.00,SE,134,10.0,18.0,94,0.00,,,0.00,0.000000,,2013-07-30 05:53:00,
2013-07-30 01:03:00,73.0,71.0,-100.00,SE,134,10.0,18.0,94,0.00,,,0.00,0.000000,,2013-07-30 06:03:00,
2013-07-30 01:33:00,72.0,72.0,-100.00,SE,137,9.0,19.0,100,0.00,,,0.00,0.000000,,2013-07-30 06:33:00,
2013-07-30 01:43:00,72.0,72.0,-100.00,SE,137,9.0,19.0,100,0.00,,,0.00,0.000000,,2013-07-30 06:43:00,
2013-07-30 01:53:00,72.0,72.0,-100.00,SE,137,9.0,19.0,100,0.00,,,0.00,0.000000,,2013-07-30 06:53:00,
2013-07-30 02:03:00,72.0,72.0,-100.00,SE,137,9.0,19.0,100,0.00,,,0.00,0.000000,,2013-07-30 07:03:00,
2013-07-30 02:33:00,72.0,72.0,-100.00,SE,145,8.0,13.0,99,0.00,,,0.00,0.000000,,2013-07-30 07:33:00,
2013-07-30 02:43:00,72.0,72.0,-100.00,SE,145,8.0,13.0,99,0.00,,,0.00,0.000000,,2013-07-30 07:43:00,
2013-07-30 02:53:00,72.0,72.0,-100.00,SE,145,8.0,13.0,99,0.00,,,0.00,0.000000,,2013-07-30 07:53:00,
2013-07-30 03:03:00,72.0,72.0,-100.00,SE,145,8.0,13.0,99,0.00,,,0.00,0.000000,,2013-07-30 08:03:00,
2013-07-30 03:33:00,72.0,72.0,-100.00,SE,136,8.0,12.0,100,0.00,,,0.00,0.000000,,2013-07-30 08:33:00,
2013-07-30 03:43:00,72.0,72.0,-100.00,SE,136,8.0,12.0,100,0.00,,,0.00,0.000000,,2013-07-30 08:43:00,
2013-07-30 03:53:00,72.0,72.0,-100.00,SE,136,8.0,12.0,100,0.00,,,0.00,0.000000,,2013-07-30 08:53:00,
2013-07-30 04:03:00,72.0,72.0,-100.00,SE,136,8.0,12.0,100,0.00,,,0.00,0.000000,,2013-07-30 09:03:00,
2013-07-30 04:33:00,72.0,72.0,-100.00,SSE,149,7.0,11.0,100,0.00,,,0.00,0.000000,,2013-07-30 09:33:00,
2013-07-30 04:43:00,72.0,72.0,-100.00,SSE,149,7.0,11.0,100,0.00,,,0.00,0.000000,,2013-07-30 09:43:00,
2013-07-30 04:53:00,72.0,72.0,-100.00,SSE,149,7.0,11.0,100,0.00,,,0.00,0.000000,,2013-07-30 09:53:00,
2013-07-30 05:03:00,72.0,72.0,-100.00,SSE,149,7.0,11.0,100,0.00,,,0.00,0.000000,,2013-07-30 10:03:00,
2013-07-30 05:33:00,72.0,72.0,-100.00,SSE,164,7.0,11.0,100,0.00,,,0.00,0.000000,,2013-07-30 10:33:00,
2013-07-30 05:44:00,72.0,72.0,-100.00,SSE,164,7.0,11.0,100,0.00,,,0.00,0.000000,,2013-07-30 10:44:00,
2013-07-30 05:52:00,72.0,72.0,-100.00,SSE,164,7.0,11.0,100,0.00,,,0.00,0.000000,,2013-07-30 10:52:00,
2013-07-30 06:02:00,72.0,72.0,-100.00,SSE,164,7.0,11.0,100,0.00,,,0.00,0.000000,,2013-07-30 11:02:00,
2013-07-30 06:33:00,71.0,71.0,-100.00,South,187,9.0,18.0,100,0.01,,,0.01,0.000000,,2013-07-30 11:33:00,
2013-07-30 06:43:00,71.0,71.0,-100.00,South,187,9.0,18.0,100,0.01,,,0.01,0.000000,,2013-07-30 11:43:00,
2013-07-30 06:53:00,71.0,71.0,-100.00,South,187,9.0,18.0,100,0.01,,,0.01,0.000000,,2013-07-30 11:53:00,
2013-07-30 07:33:00,71.0,71.0,-100.00,SW,227,9.0,17.0,100,0.05,,,0.06,1.000000,,2013-07-30 12:33:00,
2013-07-30 07:42:00,71.0,71.0,-100.00,SW,227,9.0,17.0,100,0.05,,,0.06,1.000000,,2013-07-30 12:42:00,
2013-07-30 07:53:00,71.0,71.0,-100.00,SW,227,9.0,17.0,100,0.05,,,0.06,1.000000,,2013-07-30 12:53:00,
2013-07-30 08:02:00,71.0,71.0,-100.00,SW,227,9.0,17.0,100,0.05,,,0.06,1.000000,,2013-07-30 13:02:00,
2013-07-30 08:33:00,69.0,69.0,-100.00,WSW,246,5.0,14.0,100,0.00,,,0.06,44.000000,,2013-07-30 13:33:00,
2013-07-30 08:43:00,69.0,69.0,-100.00,WSW,246,5.0,14.0,100,0.00,,,0.06,44.000000,,2013-07-30 13:43:00,
2013-07-30 08:52:00,69.0,69.0,-100.00,WSW,246,5.0,14.0,100,0.00,,,0.06,44.000000,,2013-07-30 13:52:00,
2013-07-30 09:02:00,69.0,69.0,-100.00,WSW,246,5.0,14.0,100,0.00,,,0.06,44.000000,,2013-07-30 14:02:00,
2013-07-30 09:33:00,72.0,65.0,-100.00,SW,225,6.0,12.0,80,0.00,,,0.06,173.000000,,2013-07-30 14:33:00,
2013-07-30 09:43:00,72.0,65.0,-100.00,SW,225,6.0,12.0,80,0.00,,,0.06,173.000000,,2013-07-30 14:43:00,
2013-07-30 09:53:00,72.0,65.0,-100.00,SW,225,6.0,12.0,80,0.00,,,0.06,173.000000,,2013-07-30 14:53:00,
2013-07-30 10:02:00,72.0,65.0,-100.00,SW,225,6.0,12.0,80,0.00,,,0.06,173.000000,,2013-07-30 15:02:00,
2013-07-30 10:33:00,71.0,66.0,-100.00,SSW,210,7.0,11.0,83,0.00,,,0.06,163.000000,,2013-07-30 15:33:00,
2013-07-30 10:43:00,71.0,66.0,-100.00,SSW,210,7.0,11.0,83,0.00,,,0.06,163.000000,,2013-07-30 15:43:00,
2013-07-30 10:53:00,71.0,66.0,-100.00,SSW,210,7.0,11.0,83,0.00,,,0.06,163.000000,,2013-07-30 15:53:00,
2013-07-30 11:02:00,71.0,66.0,-100.00,SSW,210,7.0,11.0,83,0.00,,,0.06,163.000000,,2013-07-30 16:02:00,
2013-07-30 11:33:00,72.0,67.0,-100.00,SSW,204,8.0,15.0,84,0.01,,,0.07,192.000000,,2013-07-30 16:33:00,
2013-07-30 11:44:00,72.0,67.0,-100.00,SSW,204,8.0,15.0,84,0.01,,,0.07,192.000000,,2013-07-30 16:44:00,
2013-07-30 11:52:00,72.0,67.0,-100.00,SSW,204,8.0,15.0,84,0.01,,,0.07,192.000000,,2013-07-30 16:52:00,
2013-07-30 12:02:00,72.0,67.0,-100.00,SSW,204,8.0,15.0,84,0.01,,,0.07,192.000000,,2013-07-30 17:02:00,
2013-07-30 12:32:00,74.0,69.0,-100.00,SW,229,6.0,12.0,85,0.00,,,0.07,441.000000,,2013-07-30 17:32:00,
2013-07-30 12:43:00,74.0,69.0,-100.00,SW,229,6.0,12.0,85,0.00,,,0.07,441.000000,,2013-07-30 17:43:00,
2013-07-30 12:54:00,74.0,69.0,-100.00,SW,229,6.0,12.0,85,0.00,,,0.07,441.000000,,2013-07-30 17:54:00,
2013-07-30 13:03:00,74.0,69.0,-100.00,SW,229,6.0,12.0,85,0.00,,,0.07,441.000000,,2013-07-30 18:03:00,
2013-07-30 13:32:00,77.0,71.0,-100.00,SSW,212,7.0,12.0,82,0.00,,,0.07,709.000000,,2013-07-30 18:32:00,
2013-07-30 13:43:00,77.0,71.0,-100.00,SSW,212,7.0,12.0,82,0.00,,,0.07,709.000000,,2013-07-30 18:43:00,
2013-07-30 13:52:00,77.0,71.0,-100.00,SSW,212,7.0,12.0,82,0.00,,,0.07,709.000000,,2013-07-30 18:52:00,
2013-07-30 14:03:00,77.0,71.0,-100.00,SSW,212,7.0,12.0,82,0.00,,,0.07,709.000000,,2013-07-30 19:03:00,
2013-07-30 14:33:00,78.0,69.0,-100.00,SW,230,8.0,14.0,74,0.00,,,0.07,940.000000,,2013-07-30 19:33:00,
2013-07-30 14:44:00,78.0,69.0,-100.00,SW,230,8.0,14.0,74,0.00,,,0.07,940.000000,,2013-07-30 19:44:00,
2013-07-30 14:52:00,78.0,69.0,-100.00,SW,230,8.0,14.0,74,0.00,,,0.07,940.000000,,2013-07-30 19:52:00,
2013-07-30 15:02:00,78.0,69.0,-100.00,SW,230,8.0,14.0,74,0.00,,,0.07,940.000000,,2013-07-30 20:02:00,
2013-07-30 15:33:00,79.0,70.0,-100.00,SW,218,7.0,15.0,74,0.00,,,0.07,998.000000,,2013-07-30 20:33:00,
2013-07-30 15:43:00,79.0,70.0,-100.00,SW,218,7.0,15.0,74,0.00,,,0.07,998.000000,,2013-07-30 20:43:00,
2013-07-30 15:52:00,79.0,70.0,-100.00,SW,218,7.0,15.0,74,0.00,,,0.07,998.000000,,2013-07-30 20:52:00,
2013-07-30 16:02:00,79.0,70.0,-100.00,SW,218,7.0,15.0,74,0.00,,,0.07,998.000000,,2013-07-30 21:02:00,
2013-07-30 16:32:00,80.0,71.0,-100.00,SW,225,7.0,15.0,73,0.00,,,0.07,931.000000,,2013-07-30 21:32:00,
2013-07-30 16:42:00,80.0,71.0,-100.00,SW,225,7.0,15.0,73,0.00,,,0.07,931.000000,,2013-07-30 21:42:00,
2013-07-30 16:53:00,80.0,71.0,-100.00,SW,225,7.0,15.0,73,0.00,,,0.07,931.000000,,2013-07-30 21:53:00,
2013-07-30 17:02:00,80.0,71.0,-100.00,SW,225,7.0,15.0,73,0.00,,,0.07,931.000000,,2013-07-30 22:02:00,
2013-07-30 17:32:00,78.0,70.0,-100.00,SSW,208,7.0,12.0,77,0.00,,,0.07,570.000000,,2013-07-30 22:32:00,
2013-07-30 17:43:00,78.0,70.0,-100.00,SSW,208,7.0,12.0,77,0.00,,,0.07,570.000000,,2013-07-30 22:43:00,
2013-07-30 17:53:00,78.0,70.0,-100.00,SSW,208,7.0,12.0,77,0.00,,,0.07,570.000000,,2013-07-30 22:53:00,
2013-07-30 18:02:00,78.0,70.0,-100.00,SSW,208,7.0,12.0,77,0.00,,,0.07,570.000000,,2013-07-30 23:02:00,
2013-07-30 18:32:00,77.0,71.0,-100.00,SSW,202,7.0,11.0,83,0.00,,,0.07,295.000000,,2013-07-30 23:32:00,
2013-07-30 18:42:00,77.0,71.0,-100.00,SSW,202,7.0,11.0,83,0.00,,,0.07,295.000000,,2013-07-30 23:42:00,
2013-07-30 18:53:00,77.0,71.0,-100.00,SSW,202,7.0,11.0,83,0.00,,,0.07,295.000000,,2013-07-30 23:53:00,
2013-07-30 19:02:00,77.0,71.0,-100.00,SSW,202,7.0,11.0,83,0.00,,,0.07,295.000000,,2013-07-31 00:02:00,
2013-07-30 19:32:00,75.0,70.0,-100.00,SW,230,4.0,10.0,85,0.01,,,0.08,150.000000,,2013-07-31 00:32:00,
2013-07-30 19:43:00,75.0,70.0,-100.00,SW,230,4.0,10.0,85,0.01,,,0.08,150.000000,,2013-07-31 00:43:00,
2013-07-30 19:53:00,75.0,70.0,-100.00,SW,230,4.0,10.0,85,0.01,,,0.08,150.000000,,2013-07-31 00:53:00,
2013-07-30 20:02:00,75.0,70.0,-100.00,SW,230,4.0,10.0,85,0.01,,,0.08,150.000000,,2013-07-31 01:02:00,
2013-07-30 20:32:00,75.0,72.0,-100.00,SSW,211,4.0,6.0,90,0.00,,,0.08,45.000000,,2013-07-31 01:32:00,
2013-07-30 20:43:00,75.0,72.0,-100.00,SSW,211,4.0,6.0,90,0.00,,,0.08,45.000000,,2013-07-31 01:43:00,
2013-07-30 20:52:00,75.0,72.0,-100.00,SSW,211,4.0,6.0,90,0.00,,,0.08,45.000000,,2013-07-31 01:52:00,
2013-07-30 21:02:00,75.0,72.0,-100.00,SSW,211,4.0,6.0,90,0.00,,,0.08,45.000000,,2013-07-31 02:02:00,
2013-07-30 21:32:00,75.0,72.0,-100.00,SSW,200,6.0,7.0,91,0.00,,,0.08,1.000000,,2013-07-31 02:32:00,
2013-07-30 21:43:00,75.0,72.0,-100.00,SSW,200,6.0,7.0,91,0.00,,,0.08,1.000000,,2013-07-31 02:43:00,
2013-07-30 21:52:00,75.0,72.0,-100.00,SSW,200,6.0,7.0,91,0.00,,,0.08,1.000000,,2013-07-31 02:52:00,
2013-07-30 22:02:00,75.0,72.0,-100.00,SSW,200,6.0,7.0,91,0.00,,,0.08,1.000000,,2013-07-31 03:02:00,
2013-07-30 22:32:00,73.0,71.0,-100.00,South,190,4.0,8.0,94,0.00,,,0.08,0.000000,,2013-07-31 03:32:00,
2013-07-30 22:42:00,73.0,71.0,-100.00,South,190,4.0,8.0,94,0.00,,,0.08,0.000000,,2013-07-31 03:42:00,
2013-07-30 22:52:00,73.0,71.0,-100.00,South,190,4.0,8.0,94,0.00,,,0.08,0.000000,,2013-07-31 03:52:00,
2013-07-30 23:02:00,73.0,71.0,-100.00,South,190,4.0,8.0,94,0.00,,,0.08,0.000000,,2013-07-31 04:02:00,
2013-07-30 23:32:00,74.0,72.0,-100.00,SW,216,4.0,7.0,94,0.00,,,0.08,0.000000,,2013-07-31 04:32:00,
2013-07-30 23:42:00,74.0,72.0,-100.00,SW,216,4.0,7.0,94,0.00,,,0.08,0.000000,,2013-07-31 04:42:00,
2013-07-30 23:52:00,74.0,72.0,-100.00,SW,216,4.0,7.0,94,0.00,,,0.08,0.000000,,2013-07-31 04:52:00,